createdAt,value
2023-06-29T00:00:44.801Z,20.68
2023-06-29T00:01:45.564Z,20.71
2023-06-29T00:02:44.880Z,20.80
2023-06-29T00:03:44.899Z,20.74
2023-06-29T00:04:44.763Z,20.84
2023-06-29T00:05:45.052Z,20.86
2023-06-29T00:06:44.730Z,20.79
2023-06-29T00:07:44.723Z,20.74
2023-06-29T00:08:45.500Z,20.76
2023-06-29T00:09:44.703Z,20.69
2023-06-29T00:10:44.693Z,20.77
2023-06-29T00:11:44.677Z,20.72
2023-06-29T00:12:44.675Z,20.77
2023-06-29T00:13:44.680Z,20.69
2023-06-29T00:14:44.649Z,20.68
2023-06-29T00:15:44.947Z,20.68
2023-06-29T00:16:44.616Z,20.62
2023-06-29T00:17:44.644Z,20.66
2023-06-29T00:18:44.624Z,20.61
2023-06-29T00:19:44.628Z,20.79
2023-06-29T00:20:44.577Z,20.66
2023-06-29T00:21:44.564Z,20.66
2023-06-29T00:22:44.555Z,20.72
2023-06-29T00:23:44.549Z,20.71
2023-06-29T00:24:44.535Z,20.72
2023-06-29T00:25:44.683Z,20.69
2023-06-29T00:26:44.507Z,20.69
2023-06-29T00:27:44.491Z,20.66
2023-06-29T00:28:44.498Z,20.71
2023-06-29T00:29:44.496Z,20.61
2023-06-29T00:30:44.485Z,20.65
2023-06-29T00:31:44.447Z,20.64
2023-06-29T00:32:44.488Z,20.59
2023-06-29T00:33:44.469Z,20.59
2023-06-29T00:34:44.452Z,20.62
2023-06-29T00:35:44.729Z,20.58
2023-06-29T00:36:44.395Z,20.58
2023-06-29T00:37:44.382Z,20.64
2023-06-29T00:38:44.386Z,20.62
2023-06-29T00:39:44.373Z,20.53
2023-06-29T00:40:44.356Z,20.50
2023-06-29T00:41:44.336Z,20.53
2023-06-29T00:42:44.328Z,20.51
2023-06-29T00:43:44.315Z,20.50
2023-06-29T00:44:44.325Z,20.50
2023-06-29T00:45:44.566Z,20.49
2023-06-29T00:46:44.321Z,20.49
2023-06-29T00:47:44.296Z,20.38
2023-06-29T00:48:44.258Z,20.39
2023-06-29T00:49:44.243Z,20.46
2023-06-29T00:50:44.285Z,20.47
2023-06-29T00:51:44.220Z,20.42
2023-06-29T00:52:44.215Z,20.47
2023-06-29T00:53:44.213Z,20.49
2023-06-29T00:54:44.190Z,20.49
2023-06-29T00:55:44.545Z,20.43
2023-06-29T00:56:44.197Z,20.47
2023-06-29T00:57:44.174Z,20.47
2023-06-29T00:58:44.158Z,20.47
2023-06-29T00:59:44.130Z,20.56
2023-06-29T01:00:44.145Z,20.43
2023-06-29T01:01:44.113Z,20.42
2023-06-29T01:02:44.239Z,20.49
2023-06-29T01:03:44.132Z,20.49
2023-06-29T01:04:44.080Z,20.49
2023-06-29T01:05:44.340Z,20.50
2023-06-29T01:06:44.079Z,20.56
2023-06-29T01:07:44.058Z,20.49
2023-06-29T01:08:44.063Z,20.49
2023-06-29T01:09:44.025Z,20.34
2023-06-29T01:10:44.014Z,20.31
2023-06-29T01:11:44.007Z,20.39
2023-06-29T01:12:43.996Z,20.35
2023-06-29T01:13:43.979Z,20.34
2023-06-29T01:14:43.996Z,20.34
2023-06-29T01:15:44.183Z,20.35
2023-06-29T01:16:44.037Z,20.33
2023-06-29T01:17:43.961Z,20.33
2023-06-29T01:18:43.930Z,20.46
2023-06-29T01:19:43.916Z,20.34
2023-06-29T01:20:43.933Z,20.39
2023-06-29T01:21:43.893Z,20.43
2023-06-29T01:22:43.955Z,20.35
2023-06-29T01:23:43.882Z,20.46
2023-06-29T01:24:43.861Z,20.47
2023-06-29T01:25:44.936Z,20.47
2023-06-29T01:26:43.842Z,20.47
2023-06-29T01:27:43.862Z,20.53
2023-06-29T01:28:43.820Z,20.49
2023-06-29T01:29:43.816Z,20.62
2023-06-29T01:30:43.819Z,20.49
2023-06-29T01:31:43.796Z,20.56
2023-06-29T01:32:43.810Z,20.49
2023-06-29T01:33:43.763Z,20.46
2023-06-29T01:34:43.756Z,20.61
2023-06-29T01:35:44.060Z,20.58
2023-06-29T01:36:43.725Z,20.51
2023-06-29T01:37:43.765Z,20.53
2023-06-29T01:38:43.726Z,20.59
2023-06-29T01:39:43.693Z,20.58
2023-06-29T01:40:43.745Z,20.43
2023-06-29T01:41:43.673Z,20.49
2023-06-29T01:42:43.668Z,20.53
2023-06-29T01:43:43.664Z,20.47
2023-06-29T01:44:43.654Z,20.46
2023-06-29T01:45:43.805Z,20.56
2023-06-29T01:46:43.670Z,20.35
2023-06-29T01:47:43.692Z,20.41
2023-06-29T01:48:43.598Z,20.47
2023-06-29T01:49:43.586Z,20.35
2023-06-29T01:50:43.600Z,20.42
2023-06-29T01:51:43.557Z,20.46
2023-06-29T01:52:43.583Z,20.35
2023-06-29T01:53:43.537Z,20.39
2023-06-29T01:54:43.575Z,20.50
2023-06-29T01:55:43.792Z,20.42
2023-06-29T01:56:43.509Z,20.49
2023-06-29T01:57:43.494Z,20.42
2023-06-29T01:58:43.480Z,20.47
2023-06-29T01:59:43.496Z,20.43
2023-06-29T02:00:43.473Z,20.42
2023-06-29T02:01:43.545Z,20.43
2023-06-29T02:02:43.623Z,20.47
2023-06-29T02:03:43.596Z,20.47
2023-06-29T02:04:43.442Z,20.51
2023-06-29T02:05:43.780Z,20.46
2023-06-29T02:06:43.438Z,20.49
2023-06-29T02:07:43.378Z,20.35
2023-06-29T02:08:43.380Z,20.31
2023-06-29T02:09:43.369Z,20.41
2023-06-29T02:10:43.370Z,20.30
2023-06-29T02:11:43.332Z,20.30
2023-06-29T02:12:43.329Z,20.38
2023-06-29T02:13:43.313Z,20.31
2023-06-29T02:14:43.325Z,20.33
2023-06-29T02:15:43.464Z,20.43
2023-06-29T02:16:43.289Z,20.46
2023-06-29T02:17:43.318Z,20.47
2023-06-29T02:18:43.258Z,20.54
2023-06-29T02:19:43.255Z,20.49
2023-06-29T02:20:43.253Z,20.42
2023-06-29T02:21:43.226Z,20.43
2023-06-29T02:22:43.240Z,20.50
2023-06-29T02:23:43.200Z,20.42
2023-06-29T02:24:43.209Z,20.34
2023-06-29T02:25:43.539Z,20.30
2023-06-29T02:26:43.194Z,20.34
2023-06-29T02:27:43.165Z,20.33
2023-06-29T02:28:43.152Z,20.31
2023-06-29T02:29:43.151Z,20.27
2023-06-29T02:30:43.128Z,20.31
2023-06-29T02:31:43.126Z,20.28
2023-06-29T02:32:43.215Z,20.35
2023-06-29T02:33:43.104Z,20.21
2023-06-29T02:34:43.102Z,20.15
2023-06-29T02:35:43.462Z,20.18
2023-06-29T02:36:43.059Z,20.16
2023-06-29T02:37:43.063Z,20.20
2023-06-29T02:38:43.059Z,20.25
2023-06-29T02:39:43.037Z,20.18
2023-06-29T02:40:43.013Z,20.16
2023-06-29T02:41:43.004Z,20.08
2023-06-29T02:42:43.022Z,20.09
2023-06-29T02:43:42.982Z,20.10
2023-06-29T02:44:42.994Z,20.05
2023-06-29T02:45:43.337Z,20.12
2023-06-29T02:46:43.085Z,20.03
2023-06-29T02:47:42.990Z,20.05
2023-06-29T02:48:42.961Z,20.02
2023-06-29T02:49:42.912Z,20.05
2023-06-29T02:50:42.951Z,20.00
2023-06-29T02:51:42.900Z,20.06
2023-06-29T02:52:42.885Z,19.95
2023-06-29T02:53:42.870Z,20.03
2023-06-29T02:54:42.879Z,20.00
2023-06-29T02:55:43.181Z,20.06
2023-06-29T02:56:42.866Z,19.90
2023-06-29T02:57:42.827Z,19.93
2023-06-29T02:58:42.863Z,19.94
2023-06-29T02:59:42.805Z,19.84
2023-06-29T03:00:42.909Z,19.93
2023-06-29T03:01:42.782Z,19.93
2023-06-29T03:02:42.888Z,19.93
2023-06-29T03:03:42.809Z,20.00
2023-06-29T03:04:42.751Z,20.02
2023-06-29T03:05:43.083Z,20.02
2023-06-29T03:06:42.729Z,19.98
2023-06-29T03:07:42.720Z,19.95
2023-06-29T03:08:42.723Z,19.98
2023-06-29T03:09:42.690Z,19.97
2023-06-29T03:10:42.797Z,20.06
2023-06-29T03:11:42.685Z,20.03
2023-06-29T03:12:42.661Z,20.00
2023-06-29T03:13:42.669Z,20.00
2023-06-29T03:14:43.091Z,19.98
2023-06-29T03:15:43.095Z,19.98
2023-06-29T03:16:42.680Z,19.94
2023-06-29T03:17:42.656Z,19.95
2023-06-29T03:18:42.604Z,19.90
2023-06-29T03:19:42.622Z,19.88
2023-06-29T03:20:42.613Z,19.90
2023-06-29T03:21:42.574Z,19.90
2023-06-29T03:22:42.552Z,19.79
2023-06-29T03:23:42.540Z,19.80
2023-06-29T03:24:42.580Z,19.80
2023-06-29T03:25:42.784Z,19.88
2023-06-29T03:26:42.506Z,19.87
2023-06-29T03:27:42.493Z,19.88
2023-06-29T03:28:42.489Z,19.80
2023-06-29T03:29:42.487Z,19.86
2023-06-29T03:30:42.539Z,19.94
2023-06-29T03:31:42.466Z,19.86
2023-06-29T03:32:42.488Z,19.87
2023-06-29T03:33:42.433Z,19.83
2023-06-29T03:34:42.438Z,19.87
2023-06-29T03:35:42.849Z,19.87
2023-06-29T03:36:42.410Z,19.93
2023-06-29T03:37:42.404Z,19.86
2023-06-29T03:38:42.422Z,19.86
2023-06-29T03:39:42.362Z,19.87
2023-06-29T03:40:42.361Z,19.91
2023-06-29T03:41:42.338Z,19.88
2023-06-29T03:42:42.330Z,19.88
2023-06-29T03:43:42.337Z,19.93
2023-06-29T03:44:42.339Z,19.86
2023-06-29T03:45:42.695Z,19.84
2023-06-29T03:46:42.308Z,19.83
2023-06-29T03:47:42.353Z,19.88
2023-06-29T03:48:42.334Z,19.86
2023-06-29T03:49:42.250Z,19.93
2023-06-29T03:50:42.258Z,19.91
2023-06-29T03:51:42.250Z,19.88
2023-06-29T03:52:42.233Z,19.98
2023-06-29T03:53:42.223Z,19.95
2023-06-29T03:54:42.202Z,19.88
2023-06-29T03:55:42.414Z,19.95
2023-06-29T03:56:42.201Z,19.95
2023-06-29T03:57:42.163Z,19.95
2023-06-29T03:58:42.167Z,19.93
2023-06-29T03:59:42.146Z,19.95
2023-06-29T04:00:42.132Z,19.98
2023-06-29T04:01:42.164Z,19.91
2023-06-29T04:02:42.223Z,19.91
2023-06-29T04:03:42.202Z,20.02
2023-06-29T04:04:42.093Z,19.88
2023-06-29T04:05:42.389Z,19.95
2023-06-29T04:06:42.074Z,20.02
2023-06-29T04:07:42.057Z,19.94
2023-06-29T04:08:42.052Z,19.94
2023-06-29T04:09:42.029Z,19.91
2023-06-29T04:10:42.062Z,20.03
2023-06-29T04:11:42.007Z,20.02
2023-06-29T04:12:41.996Z,20.03
2023-06-29T04:13:41.998Z,20.05
2023-06-29T04:14:41.974Z,19.98
2023-06-29T04:15:42.301Z,20.03
2023-06-29T04:16:42.009Z,20.06
2023-06-29T04:17:41.984Z,20.00
2023-06-29T04:18:41.953Z,20.00
2023-06-29T04:19:41.919Z,20.03
2023-06-29T04:20:41.939Z,20.09
2023-06-29T04:21:41.907Z,20.03
2023-06-29T04:22:41.895Z,20.05
2023-06-29T04:23:41.877Z,19.98
2023-06-29T04:24:41.868Z,20.05
2023-06-29T04:25:42.161Z,20.06
2023-06-29T04:26:41.862Z,20.05
2023-06-29T04:27:41.839Z,20.09
2023-06-29T04:28:41.816Z,20.03
2023-06-29T04:29:41.807Z,20.03
2023-06-29T04:30:41.879Z,19.98
2023-06-29T04:31:41.785Z,20.08
2023-06-29T04:32:41.826Z,20.02
2023-06-29T04:33:41.780Z,20.02
2023-06-29T04:34:41.771Z,20.10
2023-06-29T04:35:42.240Z,20.12
2023-06-29T04:36:41.723Z,20.05
2023-06-29T04:37:41.978Z,20.08
2023-06-29T04:38:41.703Z,20.13
2023-06-29T04:39:41.696Z,20.09
2023-06-29T04:40:41.765Z,20.12
2023-06-29T04:41:41.675Z,20.18
2023-06-29T04:42:41.660Z,20.09
2023-06-29T04:43:41.677Z,20.16
2023-06-29T04:44:41.641Z,20.13
2023-06-29T04:45:41.804Z,20.15
2023-06-29T04:46:41.848Z,20.24
2023-06-29T04:47:41.651Z,20.15
2023-06-29T04:48:41.594Z,20.18
2023-06-29T04:49:41.628Z,20.10
2023-06-29T04:50:41.700Z,20.18
2023-06-29T04:51:41.567Z,20.20
2023-06-29T04:52:41.561Z,20.31
2023-06-29T04:53:41.537Z,20.16
2023-06-29T04:54:41.536Z,20.13
2023-06-29T04:55:41.641Z,20.16
2023-06-29T04:56:41.511Z,20.20
2023-06-29T04:57:41.494Z,20.20
2023-06-29T04:58:41.481Z,20.13
2023-06-29T04:59:41.473Z,20.15
2023-06-29T05:00:41.484Z,20.16
2023-06-29T05:01:41.483Z,20.20
2023-06-29T05:02:41.506Z,20.18
2023-06-29T05:03:41.512Z,20.20
2023-06-29T05:04:41.418Z,20.23
2023-06-29T05:05:41.930Z,20.25
2023-06-29T05:06:41.419Z,20.24
2023-06-29T05:07:41.392Z,20.31
2023-06-29T05:08:41.386Z,20.25
2023-06-29T05:09:41.403Z,20.35
2023-06-29T05:10:41.365Z,20.35
2023-06-29T05:11:41.342Z,20.31
2023-06-29T05:12:41.324Z,20.38
2023-06-29T05:13:41.321Z,20.42
2023-06-29T05:14:41.307Z,20.43
2023-06-29T05:15:41.696Z,20.43
2023-06-29T05:16:41.330Z,20.47
2023-06-29T05:17:41.302Z,20.51
2023-06-29T05:18:41.259Z,20.56
2023-06-29T05:19:41.266Z,20.56
2023-06-29T05:20:41.253Z,20.53
2023-06-29T05:21:41.277Z,20.58
2023-06-29T05:22:41.242Z,20.68
2023-06-29T05:23:41.207Z,20.65
2023-06-29T05:24:41.194Z,20.74
2023-06-29T05:25:41.488Z,20.65
2023-06-29T05:26:41.175Z,20.71
2023-06-29T05:27:41.171Z,20.80
2023-06-29T05:28:42.844Z,20.86
2023-06-29T05:29:42.140Z,20.80
2023-06-29T05:30:41.147Z,20.77
2023-06-29T05:31:41.141Z,20.83
2023-06-29T05:32:41.207Z,20.72
2023-06-29T05:33:41.101Z,20.68
2023-06-29T05:34:41.089Z,20.68
2023-06-29T05:35:41.203Z,20.62
2023-06-29T05:36:41.061Z,20.62
2023-06-29T05:37:41.052Z,20.71
2023-06-29T05:38:41.074Z,20.68
2023-06-29T05:39:41.030Z,20.81
2023-06-29T05:40:41.166Z,20.84
2023-06-29T05:41:41.007Z,20.81
2023-06-29T05:42:40.991Z,20.81
2023-06-29T05:43:40.985Z,20.74
2023-06-29T05:44:40.969Z,20.80
2023-06-29T05:45:41.025Z,20.72
2023-06-29T05:46:40.955Z,20.77
2023-06-29T05:47:40.959Z,20.87
2023-06-29T05:48:40.927Z,20.90
2023-06-29T05:49:40.923Z,20.90
2023-06-29T05:50:41.040Z,20.96
2023-06-29T05:51:40.902Z,20.96
2023-06-29T05:52:40.890Z,21.08
2023-06-29T05:53:40.900Z,21.06
2023-06-29T05:54:40.886Z,21.09
2023-06-29T05:55:40.869Z,21.13
2023-06-29T05:56:40.845Z,21.06
2023-06-29T05:57:40.852Z,21.16
2023-06-29T05:58:40.821Z,21.06
2023-06-29T05:59:40.816Z,21.13
2023-06-29T06:00:40.838Z,21.11
2023-06-29T06:01:40.822Z,21.17
2023-06-29T06:02:40.801Z,21.11
2023-06-29T06:03:40.819Z,21.20
2023-06-29T06:04:40.756Z,21.23
2023-06-29T06:05:40.773Z,21.20
2023-06-29T06:06:40.733Z,21.24
2023-06-29T06:07:40.860Z,21.29
2023-06-29T06:08:40.719Z,21.17
2023-06-29T06:09:40.702Z,21.21
2023-06-29T06:10:40.738Z,21.23
2023-06-29T06:11:40.677Z,21.26
2023-06-29T06:12:40.696Z,21.24
2023-06-29T06:13:40.651Z,21.21
2023-06-29T06:14:40.644Z,21.24
2023-06-29T06:15:40.694Z,21.29
2023-06-29T06:16:40.661Z,21.27
2023-06-29T06:17:40.709Z,21.32
2023-06-29T06:18:40.600Z,21.38
2023-06-29T06:19:40.605Z,21.36
2023-06-29T06:20:40.591Z,21.42
2023-06-29T06:21:40.569Z,21.51
2023-06-29T06:22:40.572Z,21.45
2023-06-29T06:23:40.549Z,21.53
2023-06-29T06:24:40.528Z,21.53
2023-06-29T06:25:40.543Z,21.46
2023-06-29T06:26:40.871Z,21.51
2023-06-29T06:27:40.563Z,21.54
2023-06-29T06:28:40.485Z,21.51
2023-06-29T06:29:40.488Z,21.54
2023-06-29T06:30:40.460Z,21.50
2023-06-29T06:31:40.503Z,21.51
2023-06-29T06:32:40.581Z,21.54
2023-06-29T06:33:40.429Z,21.61
2023-06-29T06:34:40.415Z,21.50
2023-06-29T06:35:40.435Z,21.57
2023-06-29T06:36:40.408Z,21.71
2023-06-29T06:37:40.404Z,21.66
2023-06-29T06:38:50.218Z,21.78
2023-06-29T06:39:41.381Z,21.61
2023-06-29T06:40:40.369Z,21.79
2023-06-29T06:41:40.341Z,21.72
2023-06-29T06:42:40.349Z,21.72
2023-06-29T06:43:40.315Z,21.72
2023-06-29T06:44:40.296Z,21.71
2023-06-29T06:45:40.293Z,21.74
2023-06-29T06:46:40.323Z,21.88
2023-06-29T06:47:40.304Z,21.79
2023-06-29T06:48:40.262Z,21.83
2023-06-29T06:49:40.251Z,21.88
2023-06-29T06:50:40.288Z,21.85
2023-06-29T06:51:40.233Z,21.90
2023-06-29T06:52:40.246Z,21.81
2023-06-29T06:53:40.216Z,21.88
2023-06-29T06:54:40.190Z,21.91
2023-06-29T06:55:40.177Z,21.98
2023-06-29T06:56:40.183Z,21.92
2023-06-29T06:57:40.168Z,22.06
2023-06-29T06:58:40.268Z,21.99
2023-06-29T06:59:40.148Z,22.13
2023-06-29T07:00:40.181Z,22.10
2023-06-29T07:01:40.133Z,22.09
2023-06-29T07:02:40.248Z,22.09
2023-06-29T07:03:40.090Z,22.10
2023-06-29T07:04:40.073Z,22.16
2023-06-29T07:05:40.078Z,22.14
2023-06-29T07:06:40.074Z,22.22
2023-06-29T07:07:40.178Z,22.20
2023-06-29T07:08:40.029Z,22.28
2023-06-29T07:09:40.031Z,22.14
2023-06-29T07:10:40.020Z,22.09
2023-06-29T07:11:40.022Z,22.13
2023-06-29T07:12:39.991Z,22.16
2023-06-29T07:13:39.975Z,22.17
2023-06-29T07:14:40.033Z,22.20
2023-06-29T07:15:39.958Z,22.27
2023-06-29T07:16:40.045Z,22.34
2023-06-29T07:17:39.965Z,22.44
2023-06-29T07:18:39.929Z,22.49
2023-06-29T07:21:40.070Z,22.50
2023-06-29T07:24:39.877Z,22.54
2023-06-29T07:25:39.853Z,22.54
2023-06-29T07:26:39.855Z,22.65
2023-06-29T07:27:39.829Z,22.53
2023-06-29T07:28:39.814Z,22.60
2023-06-29T07:29:39.806Z,22.62
2023-06-29T07:30:40.029Z,22.68
2023-06-29T07:31:39.798Z,22.62
2023-06-29T07:32:39.804Z,22.84
2023-06-29T07:33:39.758Z,22.82
2023-06-29T07:34:39.752Z,22.86
2023-06-29T07:35:39.741Z,22.83
2023-06-29T07:36:39.740Z,22.92
2023-06-29T07:37:39.717Z,22.97
2023-06-29T07:38:39.713Z,23.07
2023-06-29T07:39:39.690Z,23.07
2023-06-29T07:40:39.681Z,23.01
2023-06-29T07:41:39.697Z,23.12
2023-06-29T07:42:40.630Z,23.11
2023-06-29T07:43:39.643Z,23.17
2023-06-29T07:44:39.640Z,23.12
2023-06-29T07:45:39.623Z,23.02
2023-06-29T07:46:39.697Z,23.11
2023-06-29T07:47:39.716Z,23.15
2023-06-29T07:48:39.705Z,23.09
2023-06-29T07:49:39.580Z,23.04
2023-06-29T07:50:39.575Z,22.93
2023-06-29T07:51:39.567Z,22.94
2023-06-29T07:52:39.590Z,23.02
2023-06-29T07:53:39.547Z,23.15
2023-06-29T07:54:39.549Z,23.17
2023-06-29T07:55:39.526Z,23.24
2023-06-29T07:58:40.294Z,23.71
2023-06-29T07:59:39.478Z,23.77
2023-06-29T08:00:39.472Z,24.00
2023-06-29T08:01:39.518Z,23.94
2023-06-29T08:02:39.520Z,23.97
2023-06-29T08:03:55.873Z,24.08
2023-06-29T08:07:39.532Z,23.82
2023-06-29T08:08:39.533Z,23.83
2023-06-29T08:09:39.370Z,23.67
2023-06-29T08:10:39.374Z,23.62
2023-06-29T08:11:39.344Z,23.57
2023-06-29T08:12:39.344Z,23.60
2023-06-29T08:13:39.325Z,23.43
2023-06-29T08:14:39.363Z,23.27
2023-06-29T08:15:39.298Z,23.29
2023-06-29T08:16:39.336Z,23.34
2023-06-29T08:17:39.372Z,23.34
2023-06-29T08:18:39.361Z,23.23
2023-06-29T08:19:39.259Z,23.29
2023-06-29T08:20:39.253Z,23.38
2023-06-29T08:21:39.264Z,23.42
2023-06-29T08:22:39.228Z,23.57
2023-06-29T08:23:39.209Z,23.53
2023-06-29T08:24:39.207Z,23.60
2023-06-29T08:25:39.200Z,23.64
2023-06-29T08:26:39.215Z,23.65
2023-06-29T08:27:39.177Z,23.58
2023-06-29T08:28:39.156Z,23.47
2023-06-29T08:29:39.150Z,23.49
2023-06-29T08:30:39.146Z,23.42
2023-06-29T08:31:39.169Z,23.32
2023-06-29T08:32:39.191Z,23.34
2023-06-29T08:33:39.138Z,23.24
2023-06-29T08:34:39.113Z,23.15
2023-06-29T08:35:39.074Z,23.07
2023-06-29T08:36:39.081Z,23.11
2023-06-29T08:37:39.053Z,23.08
2023-06-29T08:38:39.054Z,23.09
2023-06-29T08:39:39.049Z,23.12
2023-06-29T08:40:39.035Z,23.14
2023-06-29T08:41:39.027Z,23.09
2023-06-29T08:42:39.014Z,23.12
2023-06-29T08:43:38.998Z,23.24
2023-06-29T08:44:38.985Z,23.22
2023-06-29T08:45:38.975Z,23.23
2023-06-29T08:46:39.033Z,23.26
2023-06-29T08:47:38.966Z,23.22
2023-06-29T08:48:38.934Z,23.32
2023-06-29T08:49:38.923Z,23.32
2023-06-29T08:50:38.993Z,23.32
2023-06-29T08:51:38.910Z,23.43
2023-06-29T08:52:38.906Z,23.43
2023-06-29T08:53:38.930Z,23.35
2023-06-29T08:54:38.869Z,23.52
2023-06-29T08:55:38.848Z,23.58
2023-06-29T08:56:38.876Z,23.55
2023-06-29T08:57:38.835Z,23.75
2023-06-29T08:58:38.819Z,23.68
2023-06-29T08:59:38.808Z,23.76
2023-06-29T09:00:38.814Z,23.70
2023-06-29T09:01:38.914Z,23.79
2023-06-29T09:02:38.910Z,23.75
2023-06-29T09:03:38.918Z,23.77
2023-06-29T09:04:38.766Z,23.76
2023-06-29T09:05:38.759Z,23.89
2023-06-29T09:06:38.765Z,23.87
2023-06-29T09:07:38.860Z,23.90
2023-06-29T09:08:38.768Z,24.10
2023-06-29T09:09:38.693Z,24.38
2023-06-29T09:10:38.696Z,24.64
2023-06-29T09:11:39.144Z,24.88
2023-06-29T09:12:38.682Z,25.27
2023-06-29T09:13:38.655Z,25.56
2023-06-29T09:14:38.662Z,25.90
2023-06-29T09:15:38.754Z,26.25
2023-06-29T09:16:38.751Z,26.39
2023-06-29T09:17:38.665Z,26.37
2023-06-29T09:18:38.618Z,26.40
2023-06-29T09:19:38.614Z,26.39
2023-06-29T09:20:38.579Z,26.36
2023-06-29T09:21:38.568Z,26.35
2023-06-29T09:22:38.579Z,26.46
2023-06-29T09:23:38.619Z,26.21
2023-06-29T09:24:46.411Z,25.94
2023-06-29T09:25:39.664Z,25.69
2023-06-29T09:26:38.523Z,25.56
2023-06-29T09:27:38.526Z,25.43
2023-06-29T09:28:38.497Z,25.25
2023-06-29T09:29:40.237Z,25.19
2023-06-29T09:30:38.690Z,25.10
2023-06-29T09:31:38.500Z,25.13
2023-06-29T09:32:38.516Z,25.02
2023-06-29T09:33:38.446Z,25.07
2023-06-29T09:34:38.438Z,25.15
2023-06-29T09:35:38.466Z,25.34
2023-06-29T09:36:38.419Z,25.46
2023-06-29T09:37:38.459Z,25.61
2023-06-29T09:38:38.416Z,25.75
2023-06-29T09:39:38.375Z,26.01
2023-06-29T09:40:38.372Z,26.18
2023-06-29T09:41:38.359Z,26.43
2023-06-29T09:42:38.382Z,26.61
2023-06-29T09:43:38.332Z,26.79
2023-06-29T09:44:38.326Z,26.98
2023-06-29T09:45:38.342Z,27.17
2023-06-29T09:46:38.508Z,27.54
2023-06-29T09:49:38.364Z,27.58
2023-06-29T09:50:38.449Z,27.47
2023-06-29T09:51:38.244Z,27.50
2023-06-29T09:52:38.313Z,27.58
2023-06-29T09:53:38.275Z,27.70
2023-06-29T09:54:38.237Z,27.66
2023-06-29T09:55:38.202Z,27.43
2023-06-29T09:56:38.201Z,27.24
2023-06-29T09:57:38.197Z,26.98
2023-06-29T09:58:38.170Z,26.83
2023-06-29T09:59:38.155Z,26.74
2023-06-29T10:00:38.220Z,26.81
2023-06-29T10:01:38.189Z,26.94
2023-06-29T10:02:38.213Z,27.04
2023-06-29T10:03:38.147Z,27.20
2023-06-29T10:04:38.197Z,27.41
2023-06-29T10:05:38.099Z,27.48
2023-06-29T10:06:38.091Z,27.54
2023-06-29T10:07:38.208Z,27.50
2023-06-29T10:08:38.079Z,27.64
2023-06-29T10:09:38.063Z,27.80
2023-06-29T10:10:38.069Z,27.95
2023-06-29T10:11:38.062Z,27.99
2023-06-29T10:12:38.033Z,28.06
2023-06-29T10:13:38.014Z,28.25
2023-06-29T10:14:38.001Z,28.68
2023-06-29T10:15:37.993Z,28.95
2023-06-29T10:16:38.004Z,29.19
2023-06-29T10:17:37.999Z,29.41
2023-06-29T10:18:37.963Z,29.57
2023-06-29T10:19:37.985Z,29.78
2023-06-29T10:20:37.941Z,30.02
2023-06-29T10:21:37.935Z,30.03
2023-06-29T10:22:37.928Z,30.00
2023-06-29T10:23:37.908Z,30.15
2023-06-29T10:24:37.919Z,30.09
2023-06-29T10:25:37.886Z,30.16
2023-06-29T10:26:37.902Z,30.14
2023-06-29T10:27:37.886Z,30.19
2023-06-29T10:28:37.875Z,30.26
2023-06-29T10:29:37.843Z,30.24
2023-06-29T10:30:37.871Z,30.23
2023-06-29T10:31:37.854Z,30.14
2023-06-29T10:32:37.848Z,30.11
2023-06-29T10:33:37.816Z,29.94
2023-06-29T10:34:37.789Z,29.66
2023-06-29T10:35:37.784Z,29.18
2023-06-29T10:36:37.812Z,28.72
2023-06-29T10:37:37.793Z,28.47
2023-06-29T10:38:37.749Z,28.26
2023-06-29T10:39:37.734Z,28.22
2023-06-29T10:40:37.726Z,28.14
2023-06-29T10:41:37.721Z,28.01
2023-06-29T10:42:37.728Z,27.96
2023-06-29T10:43:37.721Z,27.89
2023-06-29T10:44:37.681Z,27.91
2023-06-29T10:45:37.674Z,27.89
2023-06-29T10:46:37.715Z,27.98
2023-06-29T10:47:37.666Z,27.74
2023-06-29T10:48:48.422Z,27.46
2023-06-29T10:49:38.625Z,27.46
2023-06-29T10:50:37.619Z,27.36
2023-06-29T10:51:37.616Z,27.14
2023-06-29T10:52:37.605Z,26.94
2023-06-29T10:53:37.587Z,26.73
2023-06-29T10:54:37.668Z,26.61
2023-06-29T10:55:37.565Z,26.65
2023-06-29T10:56:37.565Z,26.59
2023-06-29T10:57:37.542Z,26.49
2023-06-29T10:58:37.601Z,26.54
2023-06-29T10:59:37.528Z,26.52
2023-06-29T11:00:37.533Z,26.46
2023-06-29T11:01:37.512Z,26.54
2023-06-29T11:02:37.527Z,26.58
2023-06-29T11:03:37.553Z,26.54
2023-06-29T11:04:37.477Z,26.50
2023-06-29T11:05:37.478Z,26.46
2023-06-29T11:06:37.534Z,26.39
2023-06-29T11:07:37.538Z,26.47
2023-06-29T11:08:37.457Z,26.57
2023-06-29T11:09:37.423Z,26.54
2023-06-29T11:10:37.410Z,26.52
2023-06-29T11:11:37.414Z,26.59
2023-06-29T11:12:37.393Z,26.52
2023-06-29T11:13:37.416Z,26.52
2023-06-29T11:14:37.389Z,26.57
2023-06-29T11:15:37.409Z,26.46
2023-06-29T11:16:37.349Z,26.47
2023-06-29T11:17:37.385Z,26.46
2023-06-29T11:18:37.347Z,26.44
2023-06-29T11:19:37.306Z,26.43
2023-06-29T11:20:37.316Z,26.35
2023-06-29T11:21:37.324Z,26.29
2023-06-29T11:22:37.290Z,26.32
2023-06-29T11:23:37.278Z,26.42
2023-06-29T11:24:37.356Z,26.40
2023-06-29T11:25:37.241Z,26.36
2023-06-29T11:26:37.778Z,26.43
2023-06-29T11:27:37.220Z,26.29
2023-06-29T11:28:37.229Z,26.39
2023-06-29T11:29:37.210Z,26.35
2023-06-29T11:30:37.207Z,26.37
2023-06-29T11:31:37.275Z,26.43
2023-06-29T11:32:37.214Z,26.36
2023-06-29T11:33:37.166Z,26.27
2023-06-29T11:34:37.142Z,26.35
2023-06-29T11:35:37.190Z,26.35
2023-06-29T11:36:37.126Z,26.42
2023-06-29T11:37:37.108Z,26.57
2023-06-29T11:38:37.152Z,26.58
2023-06-29T11:39:37.089Z,26.67
2023-06-29T11:40:37.081Z,26.77
2023-06-29T11:41:37.070Z,26.96
2023-06-29T11:42:37.261Z,27.05
2023-06-29T11:43:37.133Z,27.14
2023-06-29T11:44:37.040Z,27.24
2023-06-29T11:45:37.029Z,27.36
2023-06-29T11:46:37.183Z,27.46
2023-06-29T11:47:37.062Z,27.58
2023-06-29T11:48:37.023Z,27.67
2023-06-29T11:49:36.992Z,27.66
2023-06-29T11:50:37.015Z,27.84
2023-06-29T11:51:36.958Z,27.79
2023-06-29T11:52:36.973Z,27.71
2023-06-29T11:53:36.950Z,27.73
2023-06-29T11:54:36.965Z,27.54
2023-06-29T11:55:36.924Z,27.43
2023-06-29T11:56:36.939Z,27.50
2023-06-29T11:57:36.956Z,27.36
2023-06-29T11:58:36.897Z,27.28
2023-06-29T11:59:36.907Z,27.10
2023-06-29T12:00:36.936Z,26.87
2023-06-29T12:01:36.867Z,26.86
2023-06-29T12:02:36.943Z,26.89
2023-06-29T12:03:36.965Z,26.89
2023-06-29T12:04:37.011Z,26.89
2023-06-29T12:05:36.803Z,26.92
2023-06-29T12:06:36.793Z,26.94
2023-06-29T12:07:36.977Z,27.10
2023-06-29T12:08:36.966Z,27.13
2023-06-29T12:09:36.863Z,27.09
2023-06-29T12:10:36.774Z,27.01
2023-06-29T12:11:36.746Z,26.92
2023-06-29T12:12:36.730Z,26.86
2023-06-29T12:13:36.751Z,26.81
2023-06-29T12:14:36.720Z,26.81
2023-06-29T12:15:36.803Z,26.81
2023-06-29T12:18:37.933Z,26.87
2023-06-29T12:19:40.334Z,26.80
2023-06-29T12:20:38.172Z,26.92
2023-06-29T12:21:36.915Z,26.96
2023-06-29T12:22:36.635Z,26.99
2023-06-29T12:23:36.610Z,26.96
2023-06-29T12:24:36.638Z,26.95
2023-06-29T12:25:36.592Z,27.02
2023-06-29T12:26:36.575Z,27.11
2023-06-29T12:27:36.569Z,27.05
2023-06-29T12:28:36.553Z,27.09
2023-06-29T12:29:37.719Z,27.06
2023-06-29T12:30:36.557Z,27.10
2023-06-29T12:31:36.587Z,27.11
2023-06-29T12:32:36.594Z,27.09
2023-06-29T12:33:36.494Z,27.05
2023-06-29T12:34:36.536Z,26.96
2023-06-29T12:35:36.485Z,27.01
2023-06-29T12:36:36.472Z,27.01
2023-06-29T12:37:36.475Z,27.02
2023-06-29T12:38:36.482Z,27.09
2023-06-29T12:39:36.519Z,27.10
2023-06-29T12:40:36.433Z,27.10
2023-06-29T12:41:36.456Z,27.17
2023-06-29T12:42:36.438Z,27.23
2023-06-29T12:43:36.391Z,27.14
2023-06-29T12:44:36.432Z,27.13
2023-06-29T12:45:36.403Z,27.14
2023-06-29T12:46:36.417Z,27.16
2023-06-29T12:47:36.491Z,27.21
2023-06-29T12:48:36.339Z,27.19
2023-06-29T12:49:36.361Z,27.11
2023-06-29T12:50:36.333Z,27.11
2023-06-29T12:51:36.311Z,27.13
2023-06-29T12:52:36.311Z,27.13
2023-06-29T12:53:36.294Z,27.13
2023-06-29T12:54:36.328Z,27.06
2023-06-29T12:55:36.275Z,27.09
2023-06-29T12:56:36.240Z,27.04
2023-06-29T12:57:36.236Z,27.06
2023-06-29T12:58:36.244Z,27.14
2023-06-29T12:59:36.234Z,27.06
2023-06-29T13:00:36.310Z,27.05
2023-06-29T13:01:36.294Z,27.09
2023-06-29T13:02:36.296Z,26.89
2023-06-29T13:03:36.341Z,26.94
2023-06-29T13:04:36.346Z,26.96
2023-06-29T13:05:36.156Z,27.04